Time;durP1;ratioP1;P1;durP2;ratioP2;P2;SDS_P1;SDS_P2;PMS_P1;PMS_P2;Temp;Humidity;BMP_temperature;BMP_pressure;BME280_temperature;BME280_humidity;BME280_pressure;Samples;Min_cycle;Max_cycle;Signal;HPM_P1;HPM_P2
2022/08/30 00:01:23;;;;;;;5.77;3.50;;;18.20;69.30;;;;;;4983300;28;20452;-71
2022/08/30 00:03:53;;;;;;;6.00;3.42;;;18.20;69.50;;;;;;4966944;28;20256;-71
2022/08/30 00:06:22;;;;;;;6.28;3.88;;;18.20;69.60;;;;;;4952106;28;20043;-71
2022/08/30 00:08:50;;;;;;;5.47;3.65;;;18.10;69.60;;;;;;4951711;28;20071;-71
2022/08/30 00:11:21;;;;;;;5.93;3.47;;;18.10;69.70;;;;;;4983032;28;20056;-71
2022/08/30 00:13:51;;;;;;;5.93;3.80;;;18.10;69.90;;;;;;4952114;28;20151;-71
2022/08/30 00:16:20;;;;;;;6.65;3.40;;;18.10;69.90;;;;;;4951007;28;20355;-71
2022/08/30 00:18:47;;;;;;;6.97;3.83;;;18.00;69.90;;;;;;4983060;28;20524;-71
2022/08/30 00:21:16;;;;;;;6.38;3.70;;;18.00;69.90;;;;;;4983172;28;20059;-71
2022/08/30 00:23:43;;;;;;;6.40;3.58;;;18.00;70.00;;;;;;4950875;28;20066;-71
2022/08/30 00:26:10;;;;;;;5.37;3.43;;;18.00;69.90;;;;;;4950807;28;20119;-71
2022/08/30 00:28:37;;;;;;;7.28;3.38;;;18.00;70.00;;;;;;4982576;28;20283;-71
2022/08/30 00:31:05;;;;;;;5.80;3.53;;;18.00;70.10;;;;;;4950108;28;20116;-71
2022/08/30 00:33:32;;;;;;;6.97;3.45;;;17.90;70.10;;;;;;4983105;28;20143;-71
2022/08/30 00:35:59;;;;;;;7.10;3.35;;;17.90;70.10;;;;;;4951814;28;20063;-71
2022/08/30 00:38:27;;;;;;;6.43;3.40;;;17.80;70.10;;;;;;4951766;28;20490;-71
2022/08/30 00:40:54;;;;;;;4.97;3.40;;;17.80;70.20;;;;;;4954864;28;20256;-71
2022/08/30 00:43:23;;;;;;;6.82;3.53;;;17.80;70.30;;;;;;4955039;28;20126;-71
2022/08/30 00:45:50;;;;;;;5.97;3.33;;;17.80;70.40;;;;;;4985688;28;20054;-71
2022/08/30 00:48:18;;;;;;;6.25;3.40;;;17.80;70.40;;;;;;4951833;28;20051;-70
2022/08/30 00:50:48;;;;;;;6.53;3.80;;;17.80;70.50;;;;;;4985819;28;20469;-71
2022/08/30 00:53:17;;;;;;;6.95;3.45;;;17.80;70.60;;;;;;4955395;28;20272;-70
2022/08/30 00:55:47;;;;;;;6.70;3.65;;;17.70;70.70;;;;;;4985812;28;20048;-71
2022/08/30 00:58:20;;;;;;;8.27;3.50;;;17.70;70.90;;;;;;4985902;28;20048;-71
2022/08/30 01:00:47;;;;;;;6.22;3.70;;;17.70;71.00;;;;;;4985849;28;20069;-71
2022/08/30 01:03:14;;;;;;;7.37;3.90;;;17.60;70.80;;;;;;4986126;28;20059;-71
2022/08/30 01:05:42;;;;;;;6.45;3.45;;;17.60;70.90;;;;;;4954943;28;20257;-71
2022/08/30 01:08:09;;;;;;;6.88;3.70;;;17.60;71.10;;;;;;4953574;28;20058;-71
2022/08/30 01:10:38;;;;;;;8.50;3.65;;;17.60;71.10;;;;;;4954840;28;20079;-71
2022/08/30 01:13:06;;;;;;;6.30;3.47;;;17.60;71.10;;;;;;4985894;28;20122;-71
2022/08/30 01:15:34;;;;;;;9.17;3.70;;;17.60;71.30;;;;;;4954635;28;20556;-70
2022/08/30 01:18:01;;;;;;;7.25;3.72;;;17.60;71.40;;;;;;4954920;28;20292;-71
2022/08/30 01:20:35;;;;;;;7.60;3.58;;;17.60;71.50;;;;;;4965452;28;20203;-71
2022/08/30 01:23:11;;;;;;;7.00;3.80;;;17.50;71.50;;;;;;4966611;28;20422;-71
2022/08/30 01:25:41;;;;;;;7.15;3.33;;;17.60;71.60;;;;;;4950150;28;20044;-71
2022/08/30 01:28:11;;;;;;;6.60;3.20;;;17.50;71.70;;;;;;4934467;29;20065;-71
2022/08/30 01:30:39;;;;;;;5.70;3.17;;;17.50;71.70;;;;;;4935261;29;20850;-71
2022/08/30 01:33:07;;;;;;;7.15;3.60;;;17.50;71.90;;;;;;4935494;29;20147;-71
2022/08/30 01:35:47;;;;;;;6.60;2.85;;;17.50;71.90;;;;;;4966350;28;20052;-71
2022/08/30 01:38:17;;;;;;;6.43;2.90;;;17.50;71.90;;;;;;4966351;28;20131;-71
2022/08/30 01:40:43;;;;;;;6.33;3.20;;;17.50;71.80;;;;;;4935137;29;20060;-71
2022/08/30 01:43:12;;;;;;;4.85;2.92;;;17.50;72.10;;;;;;4933933;29;20812;-71
2022/08/30 01:45:39;;;;;;;6.65;3.13;;;17.50;72.00;;;;;;4965876;28;20139;-71
2022/08/30 01:48:06;;;;;;;4.82;2.88;;;17.50;72.00;;;;;;4935065;28;20052;-71
2022/08/30 01:50:33;;;;;;;6.55;3.03;;;17.50;72.10;;;;;;4965470;28;20063;-71
2022/08/30 01:53:00;;;;;;;7.37;3.00;;;17.50;72.00;;;;;;4965940;28;20052;-71
2022/08/30 01:55:28;;;;;;;7.32;3.10;;;17.50;72.20;;;;;;4952352;28;20733;-71
2022/08/30 01:57:55;;;;;;;5.57;2.95;;;17.50;72.20;;;;;;4953057;28;20048;-71
2022/08/30 02:00:22;;;;;;;4.93;2.50;;;17.50;72.20;;;;;;4954250;28;20066;-71
2022/08/30 02:02:50;;;;;;;5.55;2.80;;;17.40;72.30;;;;;;4952931;28;20107;-71
2022/08/30 02:05:17;;;;;;;6.67;3.00;;;17.50;72.20;;;;;;4954046;28;20063;-71
2022/08/30 02:07:44;;;;;;;6.55;3.10;;;17.40;72.30;;;;;;4954341;28;20382;-71
2022/08/30 02:10:13;;;;;;;6.13;3.38;;;17.40;72.20;;;;;;4984793;28;20047;-71
2022/08/30 02:12:42;;;;;;;6.72;3.10;;;17.40;72.20;;;;;;4985173;28;20494;-71
2022/08/30 02:15:09;;;;;;;7.18;3.22;;;17.40;72.20;;;;;;4953718;28;20060;-71
2022/08/30 02:17:36;;;;;;;6.03;3.30;;;17.40;72.20;;;;;;4985099;28;20075;-71
2022/08/30 02:20:04;;;;;;;6.57;2.72;;;17.40;72.20;;;;;;4953491;28;20335;-71
2022/08/30 02:22:31;;;;;;;5.35;2.97;;;17.40;72.20;;;;;;4984762;28;20132;-71
2022/08/30 02:24:59;;;;;;;6.88;2.92;;;17.40;72.20;;;;;;4953405;28;20534;-71
2022/08/30 02:27:26;;;;;;;6.38;2.67;;;17.40;72.10;;;;;;4983252;28;20507;-71
2022/08/30 02:29:55;;;;;;;6.27;3.00;;;17.40;72.00;;;;;;4984461;28;20062;-71
2022/08/30 02:32:22;;;;;;;6.18;2.92;;;17.30;72.10;;;;;;4953824;28;20339;-71
2022/08/30 02:34:48;;;;;;;6.35;3.05;;;17.30;72.10;;;;;;4984617;28;20056;-71
2022/08/30 02:37:16;;;;;;;6.13;2.70;;;17.30;72.10;;;;;;4952010;28;20058;-71
2022/08/30 02:39:42;;;;;;;8.00;3.00;;;17.30;72.10;;;;;;4984629;28;20056;-71
2022/08/30 02:42:09;;;;;;;12.07;3.20;;;17.20;71.90;;;;;;4953703;28;20062;-71
2022/08/30 02:44:36;;;;;;;9.25;2.80;;;17.20;72.00;;;;;;4984396;28;20818;-70
2022/08/30 02:47:05;;;;;;;7.30;2.90;;;17.20;72.00;;;;;;4952137;28;20506;-71
2022/08/30 02:49:32;;;;;;;5.43;2.58;;;17.20;72.00;;;;;;4951990;28;20047;-70
2022/08/30 02:51:58;;;;;;;7.22;2.90;;;17.20;71.90;;;;;;4953656;28;20162;-71
2022/08/30 02:54:27;;;;;;;6.40;3.00;;;17.20;71.80;;;;;;4951990;28;20078;-70
2022/08/30 02:56:54;;;;;;;6.30;3.08;;;17.20;71.70;;;;;;4953403;28;20272;-71
2022/08/30 02:59:21;;;;;;;5.85;2.70;;;17.20;71.70;;;;;;4982782;28;20131;-71
2022/08/30 03:01:48;;;;;;;7.72;3.10;;;17.20;71.70;;;;;;4952451;28;20504;-71
2022/08/30 03:04:17;;;;;;;5.95;3.13;;;17.20;71.90;;;;;;4952797;28;20526;-70
2022/08/30 03:06:43;;;;;;;5.57;3.17;;;17.10;71.80;;;;;;4951594;28;20059;-71
2022/08/30 03:09:10;;;;;;;6.05;2.67;;;17.10;71.70;;;;;;4983959;28;20256;-71
2022/08/30 03:11:38;;;;;;;4.93;2.78;;;17.00;71.70;;;;;;4953127;28;20547;-70
2022/08/30 03:14:05;;;;;;;6.55;2.83;;;17.00;71.60;;;;;;4952928;28;20522;-70
2022/08/30 03:16:31;;;;;;;6.07;3.10;;;17.00;71.60;;;;;;4951496;28;20512;-71
2022/08/30 03:18:58;;;;;;;5.20;3.20;;;17.00;71.60;;;;;;4952644;28;20056;-71
2022/08/30 03:21:27;;;;;;;6.25;2.92;;;17.00;71.70;;;;;;4952477;28;20291;-70
2022/08/30 03:23:54;;;;;;;4.50;2.60;;;17.00;71.70;;;;;;4983570;28;20078;-71
2022/08/30 03:26:21;;;;;;;6.00;3.10;;;17.00;71.50;;;;;;4984532;28;20153;-71
2022/08/30 03:28:48;;;;;;;6.93;3.10;;;16.90;71.60;;;;;;4967396;28;20044;-71
2022/08/30 03:31:14;;;;;;;6.00;2.90;;;16.90;71.60;;;;;;4951572;28;20051;-71
2022/08/30 03:33:42;;;;;;;9.50;3.38;;;16.90;71.50;;;;;;4966393;28;20960;-71
2022/08/30 03:36:09;;;;;;;6.85;3.25;;;16.80;71.40;;;;;;4964264;28;20063;-71
2022/08/30 03:38:38;;;;;;;6.47;2.90;;;16.80;71.60;;;;;;4964436;28;20056;-71
2022/08/30 03:41:05;;;;;;;5.80;2.90;;;16.80;71.50;;;;;;4932988;29;20136;-71
2022/08/30 03:43:33;;;;;;;5.43;3.27;;;16.80;71.30;;;;;;4964630;28;20132;-71
2022/08/30 03:46:00;;;;;;;7.82;3.10;;;16.80;71.20;;;;;;4947660;28;20296;-71
2022/08/30 03:48:27;;;;;;;5.38;2.97;;;16.70;71.30;;;;;;4933627;29;20052;-70
2022/08/30 03:50:54;;;;;;;5.63;3.28;;;16.70;71.20;;;;;;4932944;29;20056;-70
2022/08/30 03:53:21;;;;;;;4.78;2.95;;;16.70;71.20;;;;;;4971239;28;20047;-70
2022/08/30 03:55:49;;;;;;;4.50;2.70;;;16.70;71.10;;;;;;4950693;28;20054;-70
2022/08/30 03:58:16;;;;;;;4.75;2.95;;;16.70;71.10;;;;;;4950757;28;20814;-70
2022/08/30 04:00:43;;;;;;;5.53;3.00;;;16.70;70.90;;;;;;4952212;28;20066;-71
2022/08/30 04:03:10;;;;;;;6.55;2.95;;;16.60;70.90;;;;;;4950917;28;20052;-70
2022/08/30 04:05:37;;;;;;;6.20;3.20;;;16.60;70.90;;;;;;4942828;28;20083;-71
2022/08/30 04:08:04;;;;;;;6.37;3.13;;;16.60;70.80;;;;;;4963695;28;20048;-71
2022/08/30 04:10:31;;;;;;;4.93;2.90;;;16.60;70.80;;;;;;4963690;28;20344;-71
2022/08/30 04:13:00;;;;;;;5.22;2.92;;;16.50;70.60;;;;;;4965612;28;20477;-70
2022/08/30 04:15:27;;;;;;;5.30;3.53;;;16.50;70.50;;;;;;4951278;28;20052;-71
2022/08/30 04:17:54;;;;;;;6.03;3.70;;;16.50;70.60;;;;;;4951171;28;20067;-70
2022/08/30 04:20:21;;;;;;;6.33;3.77;;;16.50;70.80;;;;;;4966918;28;20495;-70
2022/08/30 04:22:48;;;;;;;6.38;3.70;;;16.40;70.90;;;;;;4936385;29;20280;-71
2022/08/30 04:25:16;;;;;;;6.35;3.63;;;16.40;71.00;;;;;;4936038;29;20056;-70
2022/08/30 04:27:44;;;;;;;6.80;3.45;;;16.40;71.00;;;;;;4967648;28;20086;-70
2022/08/30 04:30:14;;;;;;;6.25;3.20;;;16.40;71.10;;;;;;4966527;28;20047;-71
2022/08/30 04:32:41;;;;;;;5.30;3.30;;;16.40;71.10;;;;;;4935791;29;20078;-70
2022/08/30 04:35:09;;;;;;;6.10;3.53;;;16.40;71.00;;;;;;4966848;28;20740;-71
2022/08/30 04:37:37;;;;;;;5.10;3.58;;;16.30;71.10;;;;;;4966397;28;20056;-70
2022/08/30 04:40:06;;;;;;;5.78;3.70;;;16.20;71.10;;;;;;4985554;28;20150;-71
2022/08/30 04:42:34;;;;;;;5.50;3.13;;;16.20;71.00;;;;;;4986066;28;20437;-71
2022/08/30 04:45:03;;;;;;;6.00;3.37;;;16.20;71.10;;;;;;4953031;28;20147;-70
2022/08/30 04:47:31;;;;;;;5.28;3.03;;;16.20;71.10;;;;;;4954868;28;20339;-71
2022/08/30 04:49:58;;;;;;;6.25;3.20;;;16.20;71.10;;;;;;4953718;28;20143;-71
2022/08/30 04:52:25;;;;;;;4.65;2.85;;;16.10;71.10;;;;;;4953745;28;20134;-70
2022/08/30 04:54:54;;;;;;;4.68;3.10;;;16.10;71.10;;;;;;4955013;28;20056;-71
2022/08/30 04:57:21;;;;;;;4.63;2.60;;;16.10;71.20;;;;;;4969106;28;20048;-71
2022/08/30 04:59:48;;;;;;;4.75;2.75;;;16.00;71.20;;;;;;4985848;28;20260;-70
2022/08/30 05:02:16;;;;;;;4.72;2.80;;;16.00;71.20;;;;;;4954290;28;20055;-70
2022/08/30 05:07:25;;;;;;;5.68;3.22;;;15.90;71.20;;;;;;4954817;28;20050;-70
2022/08/30 05:09:52;;;;;;;5.03;2.93;;;15.80;71.20;;;;;;4954602;28;20213;-70
2022/08/30 05:12:19;;;;;;;5.93;3.10;;;15.80;71.30;;;;;;4952708;28;20267;-70
2022/08/30 05:14:46;;;;;;;5.65;2.90;;;15.80;71.50;;;;;;4986372;28;20063;-70
2022/08/30 05:17:13;;;;;;;4.47;2.60;;;15.70;71.50;;;;;;4986485;28;20154;-70
2022/08/30 05:19:40;;;;;;;5.22;2.70;;;15.60;71.50;;;;;;4953772;28;20059;-70
2022/08/30 05:22:08;;;;;;;5.00;2.60;;;15.60;71.50;;;;;;4953601;28;20056;-70
2022/08/30 05:24:36;;;;;;;4.85;2.60;;;15.60;71.50;;;;;;4953703;28;20284;-70
2022/08/30 05:27:03;;;;;;;5.72;2.60;;;15.60;71.50;;;;;;4954233;28;20051;-70
2022/08/30 05:29:31;;;;;;;5.18;2.60;;;15.60;71.60;;;;;;4969374;28;20616;-70
2022/08/30 05:31:58;;;;;;;5.63;3.40;;;15.60;71.60;;;;;;4970656;28;20058;-70
2022/08/30 05:34:25;;;;;;;35.57;5.83;;;15.60;71.80;;;;;;4959717;28;20052;-71
2022/08/30 05:36:53;;;;;;;35.20;5.53;;;15.60;71.70;;;;;;4952849;28;20347;-70
2022/08/30 05:39:21;;;;;;;11.93;4.40;;;15.60;71.70;;;;;;4953590;28;20055;-71
2022/08/30 05:41:48;;;;;;;9.95;4.40;;;15.50;71.90;;;;;;4952645;28;20063;-71
2022/08/30 05:44:15;;;;;;;9.13;4.93;;;15.50;72.20;;;;;;4981012;28;20135;-71
2022/08/30 05:46:44;;;;;;;7.60;4.40;;;15.50;72.40;;;;;;4951329;28;20134;-70
2022/08/30 05:49:11;;;;;;;7.07;4.35;;;15.50;72.60;;;;;;4950886;28;20252;-70
2022/08/30 05:51:38;;;;;;;8.40;4.82;;;15.50;72.70;;;;;;4952245;28;20052;-70
2022/08/30 05:54:06;;;;;;;10.55;5.13;;;15.50;72.80;;;;;;4951502;28;20052;-71
2022/08/30 05:56:36;;;;;;;11.23;4.95;;;15.50;73.00;;;;;;4952278;28;20509;-71
2022/08/30 05:59:05;;;;;;;9.60;4.43;;;15.50;73.30;;;;;;4954004;28;20056;-71
2022/08/30 06:01:34;;;;;;;9.85;5.03;;;15.50;73.30;;;;;;4958909;28;20287;-71
2022/08/30 06:04:04;;;;;;;17.15;5.78;;;15.50;73.70;;;;;;4960453;28;20111;-71
2022/08/30 06:06:34;;;;;;;12.45;5.15;;;15.50;74.00;;;;;;4963511;28;20130;-71
2022/08/30 06:09:01;;;;;;;10.05;4.88;;;15.50;74.40;;;;;;4966418;28;20151;-70
2022/08/30 06:11:28;;;;;;;7.77;4.93;;;15.40;74.70;;;;;;4961047;28;20058;-71
2022/08/30 06:13:57;;;;;;;10.38;5.10;;;15.40;75.10;;;;;;4963621;28;20300;-71
2022/08/30 06:16:27;;;;;;;8.60;5.10;;;15.40;75.20;;;;;;4960006;28;20600;-71
2022/08/30 06:18:57;;;;;;;8.63;5.20;;;15.40;75.30;;;;;;4952362;28;21029;-71
2022/08/30 06:21:26;;;;;;;8.05;5.25;;;15.40;75.20;;;;;;4951486;28;20051;-70
2022/08/30 06:23:54;;;;;;;8.87;4.97;;;15.40;75.60;;;;;;4936301;28;20138;-70
2022/08/30 06:26:25;;;;;;;7.97;4.95;;;15.40;75.80;;;;;;4950751;28;20268;-71
2022/08/30 06:28:53;;;;;;;7.25;4.55;;;15.40;75.80;;;;;;4952582;28;20664;-70
2022/08/30 06:31:23;;;;;;;8.13;4.88;;;15.40;75.50;;;;;;4952798;28;20059;-69
2022/08/30 06:33:51;;;;;;;6.78;4.55;;;15.40;76.00;;;;;;4951843;28;20142;-70
2022/08/30 06:36:20;;;;;;;6.87;4.23;;;15.50;76.20;;;;;;4951653;28;20062;-70
2022/08/30 06:38:49;;;;;;;7.40;3.80;;;15.50;76.40;;;;;;4952827;28;20291;-69
2022/08/30 06:41:18;;;;;;;6.72;3.40;;;15.50;76.30;;;;;;4950053;28;20048;-70
2022/08/30 06:43:46;;;;;;;8.80;4.00;;;15.50;76.60;;;;;;4958345;28;20047;-70
2022/08/30 06:46:15;;;;;;;6.47;3.28;;;15.50;76.80;;;;;;4971811;28;20183;-70
2022/08/30 06:48:43;;;;;;;7.60;3.43;;;15.60;76.80;;;;;;4954418;28;20142;-70
2022/08/30 06:51:10;;;;;;;6.53;3.40;;;15.60;77.10;;;;;;4970828;28;20746;-70
2022/08/30 06:53:38;;;;;;;16.30;4.32;;;15.60;77.10;;;;;;4956373;28;20752;-69
2022/08/30 06:56:07;;;;;;;9.68;3.60;;;15.60;77.00;;;;;;4951776;28;20055;-70
2022/08/30 06:58:36;;;;;;;6.68;2.80;;;15.60;77.00;;;;;;4983296;28;20051;-70
2022/08/30 07:01:03;;;;;;;7.50;2.47;;;15.60;77.40;;;;;;4951222;28;20055;-70
2022/08/30 07:03:30;;;;;;;4.90;2.47;;;15.60;77.20;;;;;;4951217;28;20286;-70
2022/08/30 07:06:01;;;;;;;5.65;2.35;;;15.70;77.40;;;;;;4952614;28;20082;-70
2022/08/30 07:08:29;;;;;;;5.07;2.10;;;15.70;77.60;;;;;;4952637;28;20087;-71
2022/08/30 07:10:56;;;;;;;4.88;2.13;;;15.80;77.80;;;;;;4952755;28;20064;-70
2022/08/30 07:13:24;;;;;;;5.43;2.07;;;15.80;77.80;;;;;;4952727;28;20098;-71
2022/08/30 07:15:51;;;;;;;4.15;1.92;;;15.80;77.60;;;;;;4950951;28;20759;-71
2022/08/30 07:21:10;;;;;;;6.50;2.00;;;15.90;77.80;;;;;;4951987;28;20111;-71
2022/08/30 07:23:37;;;;;;;6.68;2.35;;;16.00;77.90;;;;;;4951512;28;20130;-71
2022/08/30 07:26:05;;;;;;;5.93;1.90;;;16.00;77.80;;;;;;4952554;28;20048;-72
2022/08/30 07:28:33;;;;;;;4.07;1.80;;;16.00;77.80;;;;;;4968633;28;20402;-70
2022/08/30 07:31:00;;;;;;;18.17;2.70;;;16.10;78.10;;;;;;4971555;28;20055;-70
2022/08/30 07:33:27;;;;;;;5.20;1.70;;;16.10;77.70;;;;;;4967510;28;20044;-70
2022/08/30 07:35:54;;;;;;;5.20;1.58;;;16.20;78.00;;;;;;4983384;28;20044;-70
2022/08/30 07:38:22;;;;;;;4.13;1.70;;;16.20;77.90;;;;;;4983972;28;20051;-70
2022/08/30 07:40:49;;;;;;;5.00;1.85;;;16.30;77.90;;;;;;4951888;28;20283;-70
2022/08/30 07:43:17;;;;;;;3.72;1.50;;;16.40;77.60;;;;;;4952267;28;20056;-70
2022/08/30 07:45:44;;;;;;;4.20;1.33;;;16.40;77.60;;;;;;4986360;28;20186;-70
2022/08/30 07:48:11;;;;;;;4.63;1.60;;;16.40;77.50;;;;;;4956579;28;20051;-70
2022/08/30 07:50:43;;;;;;;4.37;1.20;;;16.50;77.50;;;;;;4954128;28;20111;-70
2022/08/30 07:53:10;;;;;;;4.72;1.13;;;16.50;77.20;;;;;;4951151;28;20276;-70
2022/08/30 07:55:39;;;;;;;4.18;1.17;;;16.50;76.90;;;;;;4984924;28;20135;-70
2022/08/30 07:58:06;;;;;;;4.20;1.10;;;16.60;76.60;;;;;;4957278;28;20067;-70
2022/08/30 08:00:33;;;;;;;4.38;1.13;;;16.60;76.20;;;;;;4965812;28;20056;-70
2022/08/30 08:03:05;;;;;;;3.80;1.00;;;16.70;76.00;;;;;;4972162;28;20051;-70
2022/08/30 08:05:57;;;;;;;3.70;1.00;;;16.70;75.70;;;;;;4966672;28;20671;-70
2022/08/30 08:08:24;;;;;;;4.45;1.17;;;16.80;75.40;;;;;;4982640;28;20062;-70
2022/08/30 08:10:53;;;;;;;5.10;1.20;;;16.80;75.30;;;;;;4938379;28;20111;-70
2022/08/30 08:13:20;;;;;;;4.53;1.10;;;16.90;75.20;;;;;;4949817;28;20540;-70
2022/08/30 08:15:47;;;;;;;5.67;1.20;;;17.00;75.00;;;;;;4951579;28;20051;-70
2022/08/30 08:18:13;;;;;;;4.57;1.10;;;17.00;74.80;;;;;;4951022;28;20284;-70
2022/08/30 08:20:40;;;;;;;4.35;1.10;;;17.00;74.50;;;;;;4959106;28;20050;-70
2022/08/30 08:23:08;;;;;;;3.53;1.10;;;17.10;73.80;;;;;;4958403;28;20158;-70
2022/08/30 08:25:39;;;;;;;3.67;1.20;;;17.10;73.30;;;;;;4949809;28;20521;-70
2022/08/30 08:28:08;;;;;;;4.37;1.23;;;17.20;72.80;;;;;;4954905;28;20605;-70
2022/08/30 08:30:36;;;;;;;3.80;1.10;;;17.20;72.60;;;;;;4958290;28;20258;-68
2022/08/30 08:33:04;;;;;;;4.85;1.00;;;17.20;72.40;;;;;;4948968;28;20048;-70
2022/08/30 08:35:32;;;;;;;4.15;0.90;;;17.40;72.00;;;;;;4949691;28;20506;-70
2022/08/30 08:37:59;;;;;;;4.70;1.13;;;17.40;71.70;;;;;;4951169;28;20162;-70
2022/08/30 08:40:26;;;;;;;4.20;1.00;;;17.40;71.50;;;;;;4946756;28;20044;-70
2022/08/30 08:43:05;;;;;;;3.65;1.00;;;17.50;71.30;;;;;;4951667;28;20286;-70
2022/08/30 08:45:49;;;;;;;6.78;1.70;;;17.50;70.90;;;;;;4949259;28;20056;-70
2022/08/30 08:48:27;;;;;;;11.90;2.53;;;17.60;70.70;;;;;;4950319;28;20083;-70
2022/08/30 08:53:40;;;;;;;5.43;1.67;;;17.70;70.20;;;;;;4951217;28;20729;-71
2022/08/30 08:56:12;;;;;;;10.85;1.95;;;17.80;69.80;;;;;;4948709;28;20274;-70
2022/08/30 08:58:43;;;;;;;42.72;6.80;;;17.80;69.20;;;;;;4950111;28;20161;-70
2022/08/30 09:01:14;;;;;;;12.48;2.55;;;17.80;69.00;;;;;;4966564;28;20454;-70
2022/08/30 09:03:41;;;;;;;4.22;0.77;;;17.90;68.70;;;;;;4965207;28;20461;-70
2022/08/30 09:06:22;;;;;;;13.70;2.70;;;18.00;68.50;;;;;;4973090;28;20099;-70
2022/08/30 09:08:49;;;;;;;28.70;5.35;;;18.00;67.80;;;;;;5004274;28;20303;-70
2022/08/30 09:11:22;;;;;;;10.38;2.05;;;18.00;67.40;;;;;;4970497;28;20051;-70
2022/08/30 09:13:49;;;;;;;6.28;1.30;;;18.10;66.90;;;;;;4955313;28;20054;-69
2022/08/30 09:16:53;;;;;;;34.20;7.55;;;18.10;67.10;;;;;;4984217;28;20083;-70
2022/08/30 09:19:32;;;;;;;39.13;6.57;;;18.20;67.00;;;;;;4952795;28;20052;-70
2022/08/30 09:22:03;;;;;;;17.60;3.00;;;18.20;66.80;;;;;;4984139;28;20383;-70
2022/08/30 09:24:38;;;;;;;27.92;5.13;;;18.30;66.50;;;;;;4985267;28;20054;-70
2022/08/30 09:27:17;;;;;;;21.67;4.05;;;18.30;66.70;;;;;;4954621;28;20055;-70
2022/08/30 09:29:56;;;;;;;7.85;1.58;;;18.40;66.20;;;;;;4954571;28;20060;-70
2022/08/30 09:32:28;;;;;;;3.97;1.03;;;18.50;66.10;;;;;;4990351;28;20119;-70
2022/08/30 09:34:55;;;;;;;4.88;0.90;;;18.50;66.30;;;;;;4971777;28;20279;-70
2022/08/30 09:37:29;;;;;;;3.63;1.00;;;18.60;66.40;;;;;;4973074;28;20055;-70
2022/08/30 09:39:56;;;;;;;5.57;1.08;;;18.60;65.60;;;;;;4973244;28;20130;-70
2022/08/30 09:42:25;;;;;;;3.88;0.98;;;18.70;65.00;;;;;;4996493;28;20048;-70
2022/08/30 09:45:09;;;;;;;4.10;1.17;;;18.80;65.10;;;;;;4971505;28;20049;-70
2022/08/30 09:47:39;;;;;;;2.72;0.63;;;18.80;65.00;;;;;;4972745;28;20358;-69
2022/08/30 09:50:09;;;;;;;5.18;0.95;;;18.90;65.00;;;;;;4967741;28;20070;-69
2022/08/30 09:53:08;;;;;;;2.83;0.90;;;18.90;64.50;;;;;;4971574;28;20056;-69
2022/08/30 09:55:55;;;;;;;5.30;1.08;;;19.00;64.30;;;;;;4966555;28;20047;-69
2022/08/30 09:58:32;;;;;;;3.47;0.70;;;19.10;63.80;;;;;;4970454;28;20056;-70
2022/08/30 10:01:08;;;;;;;3.65;1.10;;;19.10;63.10;;;;;;4992742;28;20407;-70
2022/08/30 10:03:41;;;;;;;3.58;0.90;;;19.20;63.40;;;;;;4967011;28;20052;-70
2022/08/30 10:06:22;;;;;;;3.03;0.70;;;19.20;63.00;;;;;;5002168;28;20153;-69
2022/08/30 10:09:02;;;;;;;4.05;0.90;;;19.30;62.80;;;;;;4995319;28;20047;-70
2022/08/30 10:11:36;;;;;;;2.70;1.00;;;19.30;62.40;;;;;;4972281;28;20174;-70
2022/08/30 10:14:25;;;;;;;3.60;0.70;;;19.40;62.70;;;;;;4972456;28;20327;-71
2022/08/30 10:17:00;;;;;;;8.73;1.80;;;19.40;62.80;;;;;;5004114;28;20138;-72
2022/08/30 10:19:42;;;;;;;36.10;4.95;;;19.50;62.90;;;;;;4961434;28;20067;-72
2022/08/30 10:22:14;;;;;;;11.90;1.95;;;19.50;62.70;;;;;;4984490;28;20534;-71
2022/08/30 10:24:46;;;;;;;5.47;1.20;;;19.60;62.60;;;;;;4953551;28;20048;-71
2022/08/30 10:27:17;;;;;;;3.92;1.00;;;19.70;62.70;;;;;;4953790;28;20766;-73
2022/08/30 10:29:49;;;;;;;6.65;1.15;;;19.70;62.20;;;;;;4984441;28;20130;-73
2022/08/30 10:32:24;;;;;;;5.82;1.02;;;19.80;61.70;;;;;;4951952;28;20091;-74
2022/08/30 10:34:57;;;;;;;4.72;1.00;;;19.90;61.80;;;;;;4953371;28;20146;-74
2022/08/30 10:37:26;;;;;;;16.00;9.53;;;20.00;61.40;;;;;;4953252;28;20433;-75
2022/08/30 10:39:59;;;;;;;4.25;1.15;;;20.00;61.30;;;;;;4953620;28;20702;-75
2022/08/30 10:42:30;;;;;;;56.67;4.85;;;20.10;61.00;;;;;;4953515;28;20051;-76
2022/08/30 10:45:02;;;;;;;4.88;0.80;;;20.20;60.80;;;;;;4953077;28;20090;-74
2022/08/30 10:47:39;;;;;;;4.15;1.00;;;20.30;60.50;;;;;;4953107;28;20048;-75
2022/08/30 10:50:13;;;;;;;4.00;0.97;;;20.30;60.40;;;;;;4984165;28;20368;-72
2022/08/30 10:52:46;;;;;;;4.15;2.15;;;20.40;59.60;;;;;;4983649;28;20741;-76
2022/08/30 10:55:20;;;;;;;6.63;3.60;;;20.50;59.20;;;;;;4952866;28;20122;-80
2022/08/30 10:57:47;;;;;;;3.58;0.80;;;20.50;59.10;;;;;;4982942;28;20063;-69
2022/08/30 11:00:22;;;;;;;4.65;0.80;;;20.60;58.40;;;;;;4952707;28;20510;-71
2022/08/30 11:03:32;;;;;;;3.83;0.90;;;20.60;57.40;;;;;;4952620;28;20123;-72
2022/08/30 11:06:11;;;;;;;6.00;1.00;;;20.70;58.40;;;;;;4983222;28;20268;-71
2022/08/30 11:09:08;;;;;;;4.88;0.90;;;20.80;57.80;;;;;;4983518;28;20522;-76
2022/08/30 11:11:53;;;;;;;3.78;0.70;;;20.90;56.90;;;;;;4951314;28;20047;-82
2022/08/30 11:14:21;;;;;;;3.60;0.90;;;20.90;56.90;;;;;;4983181;28;20142;-84
2022/08/30 11:16:51;;;;;;;4.53;1.20;;;21.00;57.10;;;;;;4966710;28;20083;-77
2022/08/30 11:19:23;;;;;;;4.70;1.00;;;21.00;56.80;;;;;;4950009;28;20913;-72
2022/08/30 11:21:53;;;;;;;4.22;1.00;;;21.10;56.50;;;;;;4949773;28;20107;-77
2022/08/30 11:24:22;;;;;;;3.50;0.90;;;21.10;56.20;;;;;;4963649;28;20052;-81
2022/08/30 11:27:01;;;;;;;4.72;1.02;;;21.20;56.10;;;;;;4948911;28;20538;-76
2022/08/30 11:29:35;;;;;;;3.37;0.87;;;21.30;56.20;;;;;;4949647;28;20062;-80
2022/08/30 11:32:24;;;;;;;3.03;0.80;;;21.40;55.60;;;;;;4951510;28;20283;-77
2022/08/30 11:34:59;;;;;;;5.25;0.88;;;21.50;55.50;;;;;;4981798;28;20040;-72
2022/08/30 11:37:37;;;;;;;3.65;0.90;;;21.50;55.70;;;;;;4981616;28;20047;-73
2022/08/30 11:40:08;;;;;;;4.97;1.20;;;21.50;55.40;;;;;;4965298;28;20134;-72
2022/08/30 11:42:38;;;;;;;4.10;0.70;;;21.70;55.50;;;;;;4966169;28;20664;-78
2022/08/30 11:45:50;;;;;;;3.92;0.82;;;21.70;55.20;;;;;;4969918;28;20771;-73
2022/08/30 11:48:44;;;;;;;3.53;1.10;;;21.80;54.50;;;;;;4970385;28;20055;-84
2022/08/30 11:51:35;;;;;;;3.53;0.90;;;21.90;55.00;;;;;;4970220;28;20057;-77
2022/08/30 11:54:16;;;;;;;3.38;0.90;;;22.00;54.20;;;;;;4962280;28;20066;-81
2022/08/30 11:56:53;;;;;;;2.80;0.83;;;22.00;54.00;;;;;;4971191;28;20055;-81
2022/08/30 11:59:29;;;;;;;3.03;0.80;;;22.10;54.20;;;;;;4962107;28;20272;-77
2022/08/30 12:01:56;;;;;;;3.72;1.10;;;22.20;54.10;;;;;;4967663;28;20056;-76
2022/08/30 12:04:36;;;;;;;2.85;0.90;;;22.30;53.90;;;;;;4950797;28;20051;-78
2022/08/30 12:07:05;;;;;;;5.28;1.10;;;22.40;53.50;;;;;;4965288;28;20134;-78
2022/08/30 12:10:04;;;;;;;4.27;1.00;;;22.50;52.60;;;;;;4959121;28;20600;-78
2022/08/30 12:12:47;;;;;;;3.80;0.90;;;22.50;53.20;;;;;;4966446;28;20275;-77
2022/08/30 12:15:41;;;;;;;5.20;1.00;;;22.60;52.50;;;;;;4956734;28;20134;-75
2022/08/30 12:18:27;;;;;;;15.20;2.00;;;22.70;52.40;;;;;;4952071;28;20083;-75
2022/08/30 12:20:55;;;;;;;21.33;2.88;;;22.80;52.30;;;;;;4957141;28;20623;-75
2022/08/30 12:23:32;;;;;;;2.90;0.80;;;22.90;52.70;;;;;;4967255;28;20056;-76
2022/08/30 12:26:17;;;;;;;3.30;0.93;;;22.90;52.70;;;;;;4954949;28;20276;-77
2022/08/30 12:28:47;;;;;;;4.85;1.02;;;23.10;52.80;;;;;;4953442;28;20065;-76
2022/08/30 12:31:18;;;;;;;3.00;0.90;;;23.10;52.30;;;;;;4949832;28;20063;-76
2022/08/30 12:33:47;;;;;;;3.40;0.90;;;23.20;52.20;;;;;;4943823;28;20044;-77
2022/08/30 12:36:16;;;;;;;5.00;1.00;;;23.30;52.20;;;;;;4953609;28;20064;-77
2022/08/30 12:38:45;;;;;;;3.28;1.00;;;23.40;51.80;;;;;;4953198;28;20256;-77
2022/08/30 12:41:21;;;;;;;2.90;0.98;;;23.50;51.50;;;;;;4957636;28;20079;-77
2022/08/30 12:43:51;;;;;;;2.78;0.85;;;23.60;51.50;;;;;;4962176;28;20048;-77
2022/08/30 12:46:20;;;;;;;3.17;0.77;;;23.60;50.90;;;;;;4962111;28;20062;-77
2022/08/30 12:48:47;;;;;;;4.20;1.10;;;23.70;50.90;;;;;;4967999;28;20514;-77
2022/08/30 12:51:40;;;;;;;2.70;0.93;;;23.80;51.00;;;;;;4965390;28;20275;-77
2022/08/30 12:54:15;;;;;;;20.85;2.38;;;23.90;50.60;;;;;;4962276;28;20816;-77
2022/08/30 12:56:56;;;;;;;4.20;0.80;;;24.00;50.40;;;;;;4952877;28;20139;-78
2022/08/30 12:59:46;;;;;;;4.22;1.00;;;24.00;50.60;;;;;;4953318;28;20512;-78
2022/08/30 13:02:16;;;;;;;2.70;0.90;;;24.10;51.20;;;;;;4969743;28;20044;-78
2022/08/30 13:04:46;;;;;;;3.65;1.00;;;24.20;50.30;;;;;;4951467;28;20279;-77
2022/08/30 13:07:32;;;;;;;4.88;1.05;;;24.20;50.10;;;;;;4956668;28;20052;-77
2022/08/30 13:10:13;;;;;;;5.57;1.10;;;24.40;49.10;;;;;;4949110;28;20960;-76
2022/08/30 13:12:58;;;;;;;4.03;0.90;;;24.40;49.30;;;;;;4956204;28;20055;-76